Time;durP1;ratioP1;P1;durP2;ratioP2;P2;SDS_P1;SDS_P2;PMS_P1;PMS_P2;Temp;Humidity;BMP_temperature;BMP_pressure;BME280_temperature;BME280_humidity;BME280_pressure;Samples;Min_cycle;Max_cycle;Signal;HPM_P1;HPM_P2
2021/12/02 00:03:14;;;;;;;8.52;5.07;;;;;;;;;;10396994;28;20504;-92
2021/12/02 00:08:15;;;;;;;8.88;5.20;;;;;;;;;;10397964;28;20037;-93
2021/12/02 00:13:20;;;;;;;9.93;5.65;;;;;;;;;;10381747;28;20041;-89
2021/12/02 00:23:28;;;;;;;8.68;5.57;;;;;;;;;;10414875;28;20038;-89
2021/12/02 00:28:30;;;;;;;11.20;5.40;;;;;;;;;;10499396;22;20451;-90
2021/12/02 00:33:32;;;;;;;10.07;5.13;;;;;;;;;;10398122;28;20049;-88
2021/12/02 00:38:32;;;;;;;8.45;5.00;;;;;;;;;;10444287;28;20060;-89
2021/12/02 00:43:33;;;;;;;7.07;4.65;;;;;;;;;;10462257;28;20052;-87
2021/12/02 00:48:35;;;;;;;7.70;5.28;;;;;;;;;;10435948;28;20519;-87
2021/12/02 00:53:42;;;;;;;7.35;5.03;;;;;;;;;;10405109;28;20045;-87
2021/12/02 00:58:48;;;;;;;7.70;5.15;;;;;;;;;;10451349;28;20040;-88
2021/12/02 01:03:50;;;;;;;9.75;5.40;;;;;;;;;;10460721;28;20112;-88
2021/12/02 01:08:51;;;;;;;8.13;4.95;;;;;;;;;;10422419;28;20039;-87
2021/12/02 01:13:52;;;;;;;8.85;5.00;;;;;;;;;;10423204;28;20124;-87
2021/12/02 01:18:53;;;;;;;7.70;4.97;;;;;;;;;;10462876;28;20029;-87
2021/12/02 01:24:02;;;;;;;9.15;5.25;;;;;;;;;;10459829;28;20108;-88
2021/12/02 01:29:04;;;;;;;9.25;4.80;;;;;;;;;;10403332;28;20073;-87
2021/12/02 01:34:07;;;;;;;7.88;4.90;;;;;;;;;;10407336;28;20045;-87
2021/12/02 01:39:08;;;;;;;8.25;5.18;;;;;;;;;;10462260;28;20415;-87
2021/12/02 01:44:11;;;;;;;8.05;5.07;;;;;;;;;;10457526;28;20033;-87
2021/12/02 01:49:12;;;;;;;7.38;4.45;;;;;;;;;;10419819;28;20033;-88
2021/12/02 01:54:15;;;;;;;8.82;4.95;;;;;;;;;;10422845;28;20040;-87
2021/12/02 01:59:20;;;;;;;7.63;5.03;;;;;;;;;;10462062;28;20032;-88
2021/12/02 02:04:21;;;;;;;5.90;4.10;;;;;;;;;;10455519;28;20052;-88
2021/12/02 02:09:27;;;;;;;5.80;4.38;;;;;;;;;;10420084;28;20032;-88
2021/12/02 02:14:28;;;;;;;7.47;4.32;;;;;;;;;;10405333;28;20126;-87
2021/12/02 02:19:31;;;;;;;7.57;4.63;;;;;;;;;;10420151;28;20069;-87
2021/12/02 02:24:31;;;;;;;6.53;4.70;;;;;;;;;;10424863;28;20036;-88
2021/12/02 02:29:32;;;;;;;5.10;4.13;;;;;;;;;;10453550;28;20041;-87
2021/12/02 02:34:32;;;;;;;7.88;4.07;;;;;;;;;;10424341;28;20127;-88
2021/12/02 02:39:34;;;;;;;6.93;4.43;;;;;;;;;;10459791;28;20472;-88
2021/12/02 02:44:36;;;;;;;6.30;4.45;;;;;;;;;;10437988;28;20387;-89
2021/12/02 02:49:36;;;;;;;5.35;3.80;;;;;;;;;;10459697;28;20047;-88
2021/12/02 02:54:36;;;;;;;7.13;4.03;;;;;;;;;;10447219;28;20387;-89
2021/12/02 03:05:20;;;;;;;6.75;4.28;;;;;;;;;;10434885;28;20033;-88
2021/12/02 03:10:43;;;;;;;6.88;4.47;;;;;;;;;;10419724;28;20044;-89
2021/12/02 03:21:16;;;;;;;6.80;4.18;;;;;;;;;;10460454;28;20037;-88
2021/12/02 03:26:17;;;;;;;5.75;4.38;;;;;;;;;;10423878;28;20052;-89
2021/12/02 03:31:18;;;;;;;5.50;3.83;;;;;;;;;;10398625;28;20098;-88
2021/12/02 03:36:19;;;;;;;5.97;4.43;;;;;;;;;;10419947;28;20036;-88
2021/12/02 03:41:19;;;;;;;5.45;4.20;;;;;;;;;;10415747;28;20044;-88
2021/12/02 03:46:23;;;;;;;6.45;4.20;;;;;;;;;;10430960;28;20061;-88
2021/12/02 03:51:24;;;;;;;6.45;4.22;;;;;;;;;;10457973;28;20120;-88
2021/12/02 03:56:24;;;;;;;6.40;3.47;;;;;;;;;;10423575;28;20438;-88
2021/12/02 04:01:25;;;;;;;6.28;3.80;;;;;;;;;;10415931;28;20388;-88
2021/12/02 04:06:25;;;;;;;5.97;3.90;;;;;;;;;;10431488;28;20048;-87
2021/12/02 04:11:33;;;;;;;6.78;4.05;;;;;;;;;;10456368;28;20124;-88
2021/12/02 04:16:37;;;;;;;6.45;3.78;;;;;;;;;;10421071;28;20044;-87
2021/12/02 04:21:37;;;;;;;6.40;4.05;;;;;;;;;;10398053;28;20053;-87
2021/12/02 04:26:40;;;;;;;5.55;3.58;;;;;;;;;;10449849;28;20076;-88
2021/12/02 04:31:44;;;;;;;6.90;3.92;;;;;;;;;;10457271;28;20048;-87
2021/12/02 04:36:45;;;;;;;4.43;3.47;;;;;;;;;;10420422;28;20041;-87
2021/12/02 04:41:45;;;;;;;5.60;3.70;;;;;;;;;;10415339;28;20037;-87
2021/12/02 04:46:46;;;;;;;4.82;3.42;;;;;;;;;;10450270;28;20040;-88
2021/12/02 04:51:46;;;;;;;5.55;3.88;;;;;;;;;;10455277;28;20083;-88
2021/12/02 04:56:47;;;;;;;8.30;4.53;;;;;;;;;;10432278;28;20454;-87
2021/12/02 05:01:47;;;;;;;4.23;3.40;;;;;;;;;;10456308;28;20056;-86
2021/12/02 05:06:48;;;;;;;4.20;3.00;;;;;;;;;;10420321;28;20451;-88
2021/12/02 05:11:48;;;;;;;5.60;3.58;;;;;;;;;;10415192;28;20040;-89
2021/12/02 05:16:48;;;;;;;4.65;3.42;;;;;;;;;;10414609;28;20112;-88
2021/12/02 05:21:49;;;;;;;4.60;3.70;;;;;;;;;;10415272;28;20121;-89
2021/12/02 05:26:49;;;;;;;4.27;3.60;;;;;;;;;;10448251;28;20037;-87
2021/12/02 05:31:50;;;;;;;4.75;3.30;;;;;;;;;;10462862;28;20793;-87
2021/12/02 05:36:50;;;;;;;5.30;2.93;;;;;;;;;;10409458;28;20068;-87
2021/12/02 05:41:53;;;;;;;4.37;3.30;;;;;;;;;;10421244;28;20427;-87
2021/12/02 05:46:54;;;;;;;8.85;3.47;;;;;;;;;;10455425;28;20904;-88
2021/12/02 05:51:55;;;;;;;4.78;3.38;;;;;;;;;;10461159;28;20029;-87
2021/12/02 05:56:55;;;;;;;5.35;2.97;;;;;;;;;;10426700;28;20072;-87
2021/12/02 06:01:56;;;;;;;3.27;2.90;;;;;;;;;;10419714;28;20440;-86
2021/12/02 06:06:56;;;;;;;5.95;4.75;;;;;;;;;;10453824;28;20509;-89
2021/12/02 06:11:57;;;;;;;5.30;4.77;;;;;;;;;;10441849;28;20037;-88
2021/12/02 06:16:57;;;;;;;11.02;9.00;;;;;;;;;;10460164;28;20461;-88
2021/12/02 06:21:58;;;;;;;10.20;9.40;;;;;;;;;;10430479;28;20431;-86
2021/12/02 06:26:58;;;;;;;9.20;8.40;;;;;;;;;;10420914;28;20479;-82
2021/12/02 06:32:03;;;;;;;4.80;4.20;;;;;;;;;;10439449;28;20565;-84
2021/12/02 06:37:04;;;;;;;5.72;4.53;;;;;;;;;;10419261;28;20029;-84
2021/12/02 06:42:04;;;;;;;5.87;5.03;;;;;;;;;;10426923;28;20033;-88
2021/12/02 06:47:05;;;;;;;11.07;5.40;;;;;;;;;;10415066;28;21124;-88
2021/12/02 06:52:15;;;;;;;13.52;5.22;;;;;;;;;;10419442;28;20128;-87
2021/12/02 06:57:17;;;;;;;8.15;4.93;;;;;;;;;;10415002;28;20041;-84
2021/12/02 07:02:20;;;;;;;6.35;5.68;;;;;;;;;;10417615;28;20044;-91
2021/12/02 07:07:21;;;;;;;12.35;5.88;;;;;;;;;;10421839;28;20134;-89
2021/12/02 07:12:28;;;;;;;7.65;5.78;;;;;;;;;;10429542;28;20123;-89
2021/12/02 07:17:29;;;;;;;10.50;5.57;;;;;;;;;;10411665;28;20087;-86
2021/12/02 07:22:29;;;;;;;8.97;6.17;;;;;;;;;;10417430;28;20523;-88
2021/12/02 07:27:30;;;;;;;15.73;6.38;;;;;;;;;;10399157;28;20455;-88
2021/12/02 07:32:37;;;;;;;10.38;5.75;;;;;;;;;;10416189;28;20057;-89
2021/12/02 07:37:40;;;;;;;11.93;6.43;;;;;;;;;;10405203;28;20039;-88
2021/12/02 07:42:41;;;;;;;11.07;5.72;;;;;;;;;;10421839;28;20035;-89
2021/12/02 07:47:42;;;;;;;16.73;6.10;;;;;;;;;;10439030;28;20031;-88
2021/12/02 07:52:49;;;;;;;11.70;5.80;;;;;;;;;;10456218;28;20025;-88
2021/12/02 07:57:50;;;;;;;14.48;5.85;;;;;;;;;;10439159;28;20065;-88
2021/12/02 08:02:52;;;;;;;8.50;4.68;;;;;;;;;;10438842;28;20059;-88
2021/12/02 08:07:53;;;;;;;8.40;4.43;;;;;;;;;;10438760;28;20469;-88
2021/12/02 08:12:54;;;;;;;8.85;5.20;;;;;;;;;;10455926;28;20029;-88
2021/12/02 08:17:55;;;;;;;11.13;4.15;;;;;;;;;;10456521;28;20377;-87
2021/12/02 08:22:56;;;;;;;9.27;5.05;;;;;;;;;;10438417;28;20480;-88
2021/12/02 08:27:59;;;;;;;14.93;5.07;;;;;;;;;;10455631;28;20037;-88
2021/12/02 08:33:01;;;;;;;10.50;4.80;;;;;;;;;;10438449;28;20128;-88
2021/12/02 08:38:10;;;;;;;8.13;4.40;;;;;;;;;;10438087;28;20068;-87
2021/12/02 08:43:12;;;;;;;;;;;;;;;;;;10439909;28;20354;-88
2021/12/02 08:48:13;;;;;;;8.02;4.22;;;;;;;;;;10455648;28;19913;-88
2021/12/02 08:53:13;;;;;;;7.07;4.80;;;;;;;;;;10454979;28;20029;-89
2021/12/02 08:58:14;;;;;;;8.43;4.13;;;;;;;;;;10437690;28;20033;-88
2021/12/02 09:03:15;;;;;;;5.85;4.43;;;;;;;;;;10456950;28;20037;-88
2021/12/02 09:08:16;;;;;;;6.47;4.25;;;;;;;;;;10463259;28;20092;-88
2021/12/02 09:13:17;;;;;;;6.38;4.20;;;;;;;;;;10463205;28;20037;-89
2021/12/02 09:18:18;;;;;;;9.02;4.07;;;;;;;;;;10448382;28;20111;-88
2021/12/02 09:23:18;;;;;;;10.90;4.07;;;;;;;;;;10465711;28;20595;-88
2021/12/02 09:28:19;;;;;;;8.05;4.03;;;;;;;;;;10468881;28;20036;-88
2021/12/02 09:33:19;;;;;;;17.15;4.18;;;;;;;;;;10463703;28;20032;-88
2021/12/02 09:38:19;;;;;;;11.73;4.47;;;;;;;;;;10461772;28;20473;-88
2021/12/02 09:43:20;;;;;;;7.23;4.63;;;;;;;;;;10462455;28;20553;-87
2021/12/02 09:48:20;;;;;;;6.18;4.30;;;;;;;;;;10461913;28;20444;-88
2021/12/02 09:53:25;;;;;;;5.55;4.13;;;;;;;;;;10461661;28;20103;-88
2021/12/02 09:58:27;;;;;;;5.38;3.95;;;;;;;;;;10445532;28;20524;-88
2021/12/02 10:08:46;;;;;;;11.80;3.67;;;;;;;;;;10461194;28;20033;-88
2021/12/02 10:13:58;;;;;;;9.13;3.60;;;;;;;;;;10442838;28;20506;-88
2021/12/02 10:24:04;;;;;;;5.38;3.63;;;;;;;;;;10378337;28;20438;-87
2021/12/02 10:29:14;;;;;;;9.90;3.70;;;;;;;;;;10376745;28;20465;-87
2021/12/02 10:34:17;;;;;;;10.00;4.05;;;;;;;;;;10377199;28;20034;-88
2021/12/02 10:39:22;;;;;;;5.18;3.35;;;;;;;;;;10377764;28;20092;-88
2021/12/02 10:44:24;;;;;;;6.43;3.25;;;;;;;;;;10376257;28;20037;-88
2021/12/02 10:49:25;;;;;;;11.55;3.78;;;;;;;;;;10359810;28;20462;-87
2021/12/02 10:54:28;;;;;;;6.45;3.00;;;;;;;;;;10376973;28;20041;-88
2021/12/02 10:59:50;;;;;;;7.68;3.72;;;;;;;;;;10377140;28;20026;-88
2021/12/02 11:05:02;;;;;;;6.75;3.53;;;;;;;;;;10375431;28;20026;-88
2021/12/02 11:10:06;;;;;;;5.20;3.72;;;;;;;;;;10375836;28;20044;-88
2021/12/02 11:15:09;;;;;;;8.27;3.50;;;;;;;;;;10376401;28;20042;-90
2021/12/02 11:20:15;;;;;;;7.45;3.60;;;;;;;;;;10376931;28;20378;-89
2021/12/02 11:25:15;;;;;;;8.07;3.53;;;;;;;;;;10356937;28;20075;-88
2021/12/02 11:30:27;;;;;;;8.07;3.60;;;;;;;;;;10375832;28;20119;-87
2021/12/02 11:35:47;;;;;;;6.55;3.63;;;;;;;;;;10358667;28;20392;-87
2021/12/02 11:40:57;;;;;;;6.47;3.50;;;;;;;;;;10375836;28;20042;-86
2021/12/02 11:45:59;;;;;;;7.30;4.10;;;;;;;;;;10374918;28;20076;-87
2021/12/02 11:51:03;;;;;;;8.40;3.10;;;;;;;;;;10341600;28;20025;-87
2021/12/02 11:56:12;;;;;;;4.43;3.00;;;;;;;;;;10375571;28;20087;-86
2021/12/02 12:01:18;;;;;;;6.22;3.90;;;;;;;;;;10375470;28;20032;-87
2021/12/02 12:06:29;;;;;;;4.82;3.05;;;;;;;;;;10373300;28;20026;-87
2021/12/02 12:11:32;;;;;;;6.70;3.30;;;;;;;;;;10374629;28;20036;-87
2021/12/02 12:16:34;;;;;;;4.85;2.85;;;;;;;;;;10374762;28;20036;-87
2021/12/02 12:21:37;;;;;;;7.13;3.17;;;;;;;;;;10374277;28;20030;-87
2021/12/02 12:26:40;;;;;;;3.92;3.25;;;;;;;;;;10373661;28;20428;-85
2021/12/02 12:32:02;;;;;;;9.65;2.95;;;;;;;;;;10493156;23;20057;-86
2021/12/02 12:42:50;;;;;;;4.90;3.17;;;;;;;;;;10463466;28;20048;-88
2021/12/02 12:47:58;;;;;;;6.72;2.92;;;;;;;;;;10464374;28;20033;-87
2021/12/02 12:53:05;;;;;;;9.30;2.70;;;;;;;;;;10463715;28;20025;-89
2021/12/02 12:58:14;;;;;;;3.97;2.95;;;;;;;;;;10461973;28;20365;-87
2021/12/02 13:03:17;;;;;;;;;;;;;;;;;;10475083;28;20020;-88
2021/12/02 13:08:25;;;;;;;6.10;3.40;;;;;;;;;;10478156;28;19943;-88
2021/12/02 13:13:30;;;;;;;4.38;2.88;;;;;;;;;;10443866;28;20389;-88
2021/12/02 13:18:36;;;;;;;4.28;3.35;;;;;;;;;;10444776;28;20052;-87
2021/12/02 13:23:37;;;;;;;5.50;3.28;;;;;;;;;;10462588;28;20457;-87
2021/12/02 13:28:42;;;;;;;7.95;3.20;;;;;;;;;;10461969;28;20044;-87
2021/12/02 13:33:52;;;;;;;6.07;3.33;;;;;;;;;;10462481;28;20395;-88
2021/12/02 13:39:00;;;;;;;3.60;2.72;;;;;;;;;;10462578;28;20056;-88
2021/12/02 13:44:04;;;;;;;9.55;3.63;;;;;;;;;;10461679;28;20041;-88
2021/12/02 13:49:11;;;;;;;5.95;2.95;;;;;;;;;;10440182;28;20068;-83
2021/12/02 13:54:18;;;;;;;5.55;3.47;;;;;;;;;;10429055;28;20056;-83
2021/12/02 13:59:23;;;;;;;8.45;3.63;;;;;;;;;;10441278;28;20366;-81
2021/12/02 14:04:25;;;;;;;7.50;3.53;;;;;;;;;;10428039;28;20475;-88
2021/12/02 14:09:26;;;;;;;8.90;3.25;;;;;;;;;;10460761;28;20052;-88
2021/12/02 14:14:27;;;;;;;5.70;3.63;;;;;;;;;;10459711;28;20052;-87
2021/12/02 14:19:27;;;;;;;4.97;3.00;;;;;;;;;;10425770;28;20036;-87
2021/12/02 14:24:31;;;;;;;7.07;2.90;;;;;;;;;;10459576;28;20466;-88
2021/12/02 14:29:32;;;;;;;4.65;2.95;;;;;;;;;;10442840;28;20048;-87
2021/12/02 14:34:32;;;;;;;3.90;2.90;;;;;;;;;;10464775;28;20033;-88
2021/12/02 14:39:38;;;;;;;4.73;2.80;;;;;;;;;;10478780;28;20033;-88
2021/12/02 14:44:38;;;;;;;6.50;2.92;;;;;;;;;;10458786;28;20576;-87
2021/12/02 14:49:40;;;;;;;8.17;2.90;;;;;;;;;;10458482;28;20155;-87
2021/12/02 14:54:50;;;;;;;7.55;2.80;;;;;;;;;;10458845;28;20449;-87
2021/12/02 15:00:06;;;;;;;6.97;2.90;;;;;;;;;;10458920;28;20074;-87
2021/12/02 15:05:17;;;;;;;6.60;2.30;;;;;;;;;;10458172;28;20036;-87
2021/12/02 15:10:22;;;;;;;4.85;2.85;;;;;;;;;;10458443;28;20473;-86
2021/12/02 15:15:24;;;;;;;6.60;3.03;;;;;;;;;;10457421;28;20032;-87
2021/12/02 15:20:25;;;;;;;6.60;2.85;;;;;;;;;;10456549;28;20044;-86
2021/12/02 15:25:37;;;;;;;8.48;3.00;;;;;;;;;;10455016;28;20048;-86
2021/12/02 15:30:48;;;;;;;6.20;2.92;;;;;;;;;;10442439;28;20045;-87
2021/12/02 15:35:49;;;;;;;3.60;2.50;;;;;;;;;;10436798;28;20052;-87
2021/12/02 15:40:50;;;;;;;5.00;2.40;;;;;;;;;;10434402;28;20166;-87
2021/12/02 15:45:51;;;;;;;4.38;2.40;;;;;;;;;;10440099;28;20412;-87
2021/12/02 15:50:55;;;;;;;4.47;2.90;;;;;;;;;;10419775;28;20392;-87
2021/12/02 15:55:55;;;;;;;3.38;2.50;;;;;;;;;;10452218;28;20041;-88
2021/12/02 16:01:00;;;;;;;4.07;2.50;;;;;;;;;;10416556;28;20026;-88
2021/12/02 16:16:23;;;;;;;3.00;2.67;;;;;;;;;;10441737;28;20036;-88
2021/12/02 16:21:24;;;;;;;3.40;2.97;;;;;;;;;;10456036;28;20036;-88
2021/12/02 16:26:24;;;;;;;6.75;2.88;;;;;;;;;;10455101;28;20033;-88
2021/12/02 16:31:24;;;;;;;4.20;2.53;;;;;;;;;;10461657;28;20056;-87
2021/12/02 16:36:25;;;;;;;5.60;2.83;;;;;;;;;;10456314;28;20033;-87
2021/12/02 16:41:25;;;;;;;5.60;3.17;;;;;;;;;;10448449;28;20037;-84
2021/12/02 16:46:30;;;;;;;4.70;3.50;;;;;;;;;;10448948;28;20454;-85
2021/12/02 16:51:30;;;;;;;5.05;3.38;;;;;;;;;;10427479;28;20029;-85
2021/12/02 16:56:31;;;;;;;12.23;3.42;;;;;;;;;;10414488;28;20112;-85
2021/12/02 17:01:31;;;;;;;6.80;3.63;;;;;;;;;;10436455;28;20033;-85
2021/12/02 17:06:32;;;;;;;7.80;3.28;;;;;;;;;;10411074;28;20473;-88
2021/12/02 17:11:32;;;;;;;5.78;3.65;;;;;;;;;;10435151;28;20083;-88
2021/12/02 17:16:33;;;;;;;7.63;3.95;;;;;;;;;;10436672;28;20063;-89
2021/12/02 17:21:33;;;;;;;5.97;3.60;;;;;;;;;;10455169;28;20166;-88
2021/12/02 17:26:34;;;;;;;6.53;4.13;;;;;;;;;;10460662;28;20104;-89
2021/12/02 17:31:35;;;;;;;9.45;4.03;;;;;;;;;;10431036;28;21043;-87
2021/12/02 17:36:36;;;;;;;7.47;3.97;;;;;;;;;;10442462;28;20116;-87
2021/12/02 17:41:37;;;;;;;8.40;3.63;;;;;;;;;;10445177;28;20030;-86
2021/12/02 17:46:37;;;;;;;6.68;4.03;;;;;;;;;;10410754;28;20034;-86
2021/12/02 17:51:38;;;;;;;6.00;3.65;;;;;;;;;;10460987;28;20119;-88
2021/12/02 17:56:39;;;;;;;6.15;3.70;;;;;;;;;;10438999;28;20481;-86
2021/12/02 18:01:40;;;;;;;9.95;4.85;;;;;;;;;;10443916;28;20408;-86
2021/12/02 18:06:41;;;;;;;7.70;4.43;;;;;;;;;;10440405;28;20045;-85
2021/12/02 18:11:41;;;;;;;8.13;4.35;;;;;;;;;;10412571;28;20366;-85
2021/12/02 18:16:42;;;;;;;9.53;3.80;;;;;;;;;;10437882;28;20083;-86
2021/12/02 18:21:42;;;;;;;7.97;3.63;;;;;;;;;;10459339;28;20476;-85
2021/12/02 18:26:43;;;;;;;5.13;3.67;;;;;;;;;;10442395;28;20450;-85
2021/12/02 18:31:43;;;;;;;6.70;3.70;;;;;;;;;;10460762;28;20080;-85
2021/12/02 18:36:44;;;;;;;11.02;3.80;;;;;;;;;;10440060;28;20083;-85
2021/12/02 18:41:44;;;;;;;6.53;4.00;;;;;;;;;;10426949;28;20021;-86
2021/12/02 18:46:45;;;;;;;7.18;3.85;;;;;;;;;;10438161;28;20030;-85
2021/12/02 18:51:45;;;;;;;9.13;3.87;;;;;;;;;;10447167;28;20112;-86
2021/12/02 18:56:45;;;;;;;5.65;3.63;;;;;;;;;;10431531;28;20447;-85
2021/12/02 19:01:46;;;;;;;6.13;3.60;;;;;;;;;;10433199;28;20108;-87
2021/12/02 19:06:52;;;;;;;6.38;3.90;;;;;;;;;;10442224;28;20470;-84
2021/12/02 19:23:00;;;;;;;16.25;4.28;;;;;;;;;;10419032;28;20041;-85
2021/12/02 19:28:00;;;;;;;9.32;3.83;;;;;;;;;;10447113;28;20028;-85
2021/12/02 19:33:01;;;;;;;9.65;4.20;;;;;;;;;;10446677;28;20060;-85
2021/12/02 19:38:02;;;;;;;5.70;4.10;;;;;;;;;;10430102;28;20120;-85
2021/12/02 19:43:04;;;;;;;7.40;4.10;;;;;;;;;;10445454;28;20029;-86
2021/12/02 19:48:05;;;;;;;12.20;4.47;;;;;;;;;;10434148;28;20064;-86
2021/12/02 19:53:05;;;;;;;11.73;5.60;;;;;;;;;;10456664;28;20484;-87
2021/12/02 19:58:07;;;;;;;13.35;4.82;;;;;;;;;;10456260;28;20033;-88
2021/12/02 20:03:08;;;;;;;12.02;4.95;;;;;;;;;;10456586;28;20041;-88
2021/12/02 20:08:10;;;;;;;10.63;5.25;;;;;;;;;;10437167;28;20029;-88
2021/12/02 20:13:10;;;;;;;12.88;5.22;;;;;;;;;;10445454;28;20063;-86
2021/12/02 20:18:15;;;;;;;15.80;5.63;;;;;;;;;;10437937;28;20064;-87
2021/12/02 20:23:17;;;;;;;9.75;4.60;;;;;;;;;;10456400;28;20458;-87
2021/12/02 20:28:19;;;;;;;7.47;4.85;;;;;;;;;;10438090;28;20029;-87
2021/12/02 20:33:20;;;;;;;14.52;5.63;;;;;;;;;;10438667;28;20480;-87
2021/12/02 20:38:20;;;;;;;9.43;4.70;;;;;;;;;;10456315;28;20075;-88
2021/12/02 20:43:22;;;;;;;14.75;4.95;;;;;;;;;;10438004;28;20025;-87
2021/12/02 20:48:30;;;;;;;8.27;4.20;;;;;;;;;;10455533;28;20384;-87
2021/12/02 20:53:34;;;;;;;11.13;4.60;;;;;;;;;;10455789;28;20025;-87
2021/12/02 20:58:35;;;;;;;13.55;4.50;;;;;;;;;;10440541;28;20029;-87
2021/12/02 21:03:37;;;;;;;7.00;3.97;;;;;;;;;;10445896;28;20112;-87
2021/12/02 21:08:37;;;;;;;10.07;3.75;;;;;;;;;;10463835;28;20461;-87
2021/12/02 21:13:44;;;;;;;9.70;4.15;;;;;;;;;;10462739;28;20024;-87
2021/12/02 21:18:46;;;;;;;7.00;3.88;;;;;;;;;;10448181;28;20024;-87
2021/12/02 21:23:48;;;;;;;7.72;4.10;;;;;;;;;;10449051;28;20112;-86
2021/12/02 21:28:50;;;;;;;9.00;4.20;;;;;;;;;;10464803;28;20053;-86
2021/12/02 21:33:50;;;;;;;11.70;3.22;;;;;;;;;;10462940;28;20032;-87
2021/12/02 21:38:51;;;;;;;7.87;3.67;;;;;;;;;;10462513;28;20381;-87
2021/12/02 21:43:53;;;;;;;9.05;4.63;;;;;;;;;;10445159;28;20525;-87
2021/12/02 21:48:53;;;;;;;10.73;3.95;;;;;;;;;;10461534;28;20037;-87
2021/12/02 21:53:54;;;;;;;8.55;3.58;;;;;;;;;;10461581;28;20021;-86
2021/12/02 21:58:57;;;;;;;6.90;3.47;;;;;;;;;;10461286;28;20021;-87
2021/12/02 22:03:57;;;;;;;7.15;3.47;;;;;;;;;;10461516;28;20075;-87
2021/12/02 22:08:58;;;;;;;6.63;3.60;;;;;;;;;;10461310;28;20080;-87
2021/12/02 22:13:58;;;;;;;7.67;3.37;;;;;;;;;;10461402;28;20116;-87
2021/12/02 22:18:59;;;;;;;7.18;3.33;;;;;;;;;;10442618;28;20983;-87
2021/12/02 22:23:59;;;;;;;5.35;3.10;;;;;;;;;;10461198;28;20057;-86
2021/12/02 22:29:00;;;;;;;9.70;3.30;;;;;;;;;;10459966;28;20048;-87
2021/12/02 22:34:02;;;;;;;6.07;3.72;;;;;;;;;;10458071;28;20033;-86
2021/12/02 22:39:05;;;;;;;4.78;3.28;;;;;;;;;;10458097;28;20033;-85
2021/12/02 22:44:07;;;;;;;5.68;3.00;;;;;;;;;;10453816;28;20028;-85
2021/12/02 22:49:08;;;;;;;6.40;3.40;;;;;;;;;;10440223;28;20588;-85
2021/12/02 22:54:10;;;;;;;5.53;3.13;;;;;;;;;;10459180;28;20029;-87
2021/12/02 23:05:25;;;;;;;4.85;2.95;;;;;;;;;;10328633;28;20066;-93
2021/12/02 23:10:33;;;;;;;8.63;2.70;;;;;;;;;;10313165;28;20027;-94
2021/12/02 23:15:35;;;;;;;7.87;3.33;;;;;;;;;;10297280;28;20129;-92
2021/12/02 23:20:37;;;;;;;6.18;2.38;;;;;;;;;;10296150;28;20042;-95
2021/12/02 23:25:46;;;;;;;7.68;3.00;;;;;;;;;;10298470;28;20049;-94
2021/12/02 23:31:04;;;;;;;6.45;2.72;;;;;;;;;;10314468;28;20050;-95
2021/12/02 23:36:14;;;;;;;5.30;3.05;;;;;;;;;;10297729;28;20490;-94
2021/12/02 23:47:11;;;;;;;5.68;2.42;;;;;;;;;;10412667;28;20041;-82
2021/12/02 23:52:11;;;;;;;3.42;2.25;;;;;;;;;;10445377;28;20425;-82
2021/12/02 23:57:12;;;;;;;6.15;2.78;;;;;;;;;;10467548;28;20423;-83
